createdAt,value
2024-03-21T00:01:08.118Z,50.80
2024-03-21T00:04:33.672Z,51.70
2024-03-21T00:07:58.921Z,50.30
2024-03-21T00:11:24.638Z,52.00
2024-03-21T00:14:50.034Z,49.80
2024-03-21T00:18:16.170Z,47.70
2024-03-21T00:21:41.528Z,48.20
2024-03-21T00:25:07.434Z,50.00
2024-03-21T00:28:32.973Z,49.20
2024-03-21T00:31:58.389Z,47.70
2024-03-21T00:35:23.768Z,46.80
2024-03-21T00:38:49.366Z,47.90
2024-03-21T00:42:14.649Z,51.20
2024-03-21T00:45:39.954Z,49.80
2024-03-21T00:49:05.127Z,49.60
2024-03-21T00:52:30.985Z,51.70
2024-03-21T00:55:56.738Z,51.30
2024-03-21T00:59:22.735Z,49.80
2024-03-21T01:02:48.889Z,50.90
2024-03-21T01:06:13.885Z,50.10
2024-03-21T01:09:39.012Z,50.70
2024-03-21T01:13:04.252Z,51.30
2024-03-21T01:16:30.119Z,51.20
2024-03-21T01:19:55.395Z,51.40
2024-03-21T01:23:20.496Z,51.00
2024-03-21T01:26:45.645Z,52.20
2024-03-21T01:30:13.524Z,52.00
2024-03-21T01:33:38.841Z,49.80
2024-03-21T01:37:04.210Z,50.20
2024-03-21T01:40:29.431Z,48.60
2024-03-21T01:43:54.637Z,47.60
2024-03-21T01:47:19.980Z,46.60
2024-03-21T01:50:45.314Z,47.40
2024-03-21T01:54:12.113Z,46.70
2024-03-21T01:57:37.812Z,45.20
2024-03-21T02:01:21.741Z,47.30
2024-03-21T02:04:47.361Z,48.90
2024-03-21T02:08:12.491Z,49.40
2024-03-21T02:11:37.686Z,48.00
2024-03-21T02:15:02.803Z,48.60
2024-03-21T02:18:28.172Z,47.20
2024-03-21T02:22:10.832Z,48.10
2024-03-21T02:25:36.340Z,49.10
2024-03-21T02:29:01.448Z,48.20
2024-03-21T02:32:26.770Z,49.50
2024-03-21T02:35:54.517Z,49.00
2024-03-21T02:39:19.787Z,49.90
2024-03-21T02:42:44.795Z,49.10
2024-03-21T02:46:09.740Z,48.90
2024-03-21T02:49:34.837Z,48.40
2024-03-21T02:53:00.150Z,50.20
2024-03-21T02:56:25.206Z,48.60
2024-03-21T02:59:50.430Z,47.90
2024-03-21T03:03:15.540Z,46.00
2024-03-21T03:06:40.731Z,45.80
2024-03-21T03:10:06.250Z,46.10
2024-03-21T03:13:31.384Z,47.20
2024-03-21T03:16:56.635Z,47.20
2024-03-21T03:20:21.639Z,46.40
2024-03-21T03:23:46.891Z,47.30
2024-03-21T03:27:12.416Z,46.40
2024-03-21T03:30:37.976Z,46.40
2024-03-21T03:34:20.749Z,47.50
2024-03-21T03:37:46.204Z,48.30
2024-03-21T03:41:11.103Z,48.60
2024-03-21T03:44:36.528Z,48.40
2024-03-21T03:48:01.684Z,50.00
2024-03-21T03:51:26.734Z,49.20
2024-03-21T03:54:51.730Z,48.70
2024-03-21T03:58:16.897Z,50.30
2024-03-21T04:01:42.722Z,51.40
2024-03-21T04:05:10.991Z,50.70
2024-03-21T04:08:36.190Z,50.60
2024-03-21T04:12:01.244Z,48.50
2024-03-21T04:15:26.582Z,48.60
2024-03-21T04:18:51.823Z,48.40
2024-03-21T04:22:17.107Z,48.50
2024-03-21T04:25:42.726Z,48.70
2024-03-21T04:29:09.299Z,46.10
2024-03-21T04:32:34.472Z,47.30
2024-03-21T04:36:01.310Z,49.10
2024-03-21T04:39:26.579Z,46.90
2024-03-21T04:42:52.782Z,47.40
2024-03-21T04:46:18.044Z,46.90
2024-03-21T04:49:43.330Z,48.00
2024-03-21T04:53:09.479Z,49.90
2024-03-21T04:56:34.776Z,49.80
2024-03-21T05:00:01.297Z,49.00
2024-03-21T05:03:26.792Z,51.70
2024-03-21T05:06:52.679Z,51.00
2024-03-21T05:10:18.378Z,50.90
2024-03-21T05:13:47.598Z,50.90
2024-03-21T05:17:15.985Z,51.00
2024-03-21T05:20:41.379Z,49.80
2024-03-21T05:24:07.446Z,49.00
2024-03-21T05:27:32.733Z,47.80
2024-03-21T05:30:57.813Z,49.20
2024-03-21T05:34:26.941Z,47.70
2024-03-21T05:37:53.200Z,49.30
2024-03-21T05:41:18.376Z,48.80
2024-03-21T05:44:44.503Z,51.10
2024-03-21T05:48:10.738Z,50.90
2024-03-21T05:51:36.463Z,49.40
2024-03-21T05:55:02.562Z,52.30
2024-03-21T05:58:27.971Z,52.40
2024-03-21T06:01:53.118Z,52.70
2024-03-21T06:05:19.515Z,51.40
2024-03-21T06:08:45.533Z,52.00
2024-03-21T06:12:11.329Z,50.50
2024-03-21T06:15:39.654Z,51.50
2024-03-21T06:19:05.692Z,52.60
2024-03-21T06:22:31.069Z,55.70
2024-03-21T06:25:58.591Z,57.70
2024-03-21T06:29:28.495Z,56.90
2024-03-21T06:32:54.432Z,53.20
2024-03-21T06:36:20.293Z,49.70
2024-03-21T06:39:45.640Z,51.80
2024-03-21T06:43:11.382Z,51.90
2024-03-21T06:46:39.609Z,49.40
2024-03-21T06:50:05.671Z,48.50
2024-03-21T06:53:30.926Z,48.30
2024-03-21T06:56:55.878Z,50.00
2024-03-21T07:00:21.145Z,50.60
2024-03-21T07:03:46.368Z,52.50
2024-03-21T07:07:11.722Z,51.00
2024-03-21T07:10:36.944Z,50.40
2024-03-21T07:14:04.045Z,51.00
2024-03-21T07:17:29.025Z,53.00
2024-03-21T07:20:58.656Z,53.30
2024-03-21T07:24:24.059Z,53.30
2024-03-21T07:27:49.269Z,57.00
2024-03-21T07:31:14.362Z,55.40
2024-03-21T07:34:39.706Z,55.30
2024-03-21T07:38:05.119Z,56.30
2024-03-21T07:41:30.307Z,57.10
2024-03-21T07:44:55.836Z,56.20
2024-03-21T07:48:21.438Z,53.10
2024-03-21T07:51:48.611Z,52.40
2024-03-21T07:55:14.015Z,53.70
2024-03-21T07:58:39.096Z,53.70
2024-03-21T08:02:05.426Z,51.50
2024-03-21T08:05:30.378Z,51.40
2024-03-21T08:08:55.497Z,48.80
2024-03-21T08:12:20.552Z,48.20
2024-03-21T08:15:47.050Z,49.90
2024-03-21T08:19:12.406Z,49.50
2024-03-21T08:22:37.470Z,52.00
2024-03-21T08:26:06.483Z,53.00
2024-03-21T08:29:31.687Z,65.50
2024-03-21T08:32:56.748Z,61.60
2024-03-21T08:36:21.684Z,59.50
2024-03-21T08:39:46.752Z,64.60
2024-03-21T08:43:11.722Z,66.60
2024-03-21T08:46:36.708Z,62.50
2024-03-21T08:50:01.768Z,63.00
2024-03-21T08:53:26.716Z,58.20
2024-03-21T08:56:52.365Z,55.90
2024-03-21T09:00:19.720Z,55.00
2024-03-21T09:03:44.807Z,53.90
2024-03-21T09:07:10.710Z,53.30
2024-03-21T09:10:35.937Z,52.70
2024-03-21T09:14:02.936Z,51.50
2024-03-21T09:17:27.958Z,50.80
2024-03-21T09:20:53.074Z,49.70
2024-03-21T09:24:18.075Z,49.60
2024-03-21T09:27:43.158Z,52.40
2024-03-21T09:31:08.409Z,49.00
2024-03-21T09:34:33.484Z,51.10
2024-03-21T09:37:58.644Z,51.90
2024-03-21T09:41:23.939Z,52.30
2024-03-21T09:44:54.618Z,55.30
2024-03-21T09:48:19.932Z,55.60
2024-03-21T09:51:45.430Z,55.50
2024-03-21T09:55:15.497Z,57.00
2024-03-21T09:58:40.719Z,59.90
2024-03-21T10:02:09.849Z,57.80
2024-03-21T10:05:35.077Z,57.90
2024-03-21T10:09:01.007Z,56.30
2024-03-21T10:12:27.181Z,56.20
2024-03-21T10:15:52.363Z,53.40
2024-03-21T10:19:17.756Z,56.00
2024-03-21T10:22:48.427Z,60.00
2024-03-21T10:26:16.589Z,57.50
2024-03-21T10:29:42.513Z,57.10
2024-03-21T10:33:17.217Z,52.90
2024-03-21T10:36:42.831Z,56.70
2024-03-21T10:40:12.904Z,53.90
2024-03-21T10:43:41.721Z,54.60
2024-03-21T10:47:10.606Z,56.50
2024-03-21T10:50:35.844Z,58.80
2024-03-21T10:54:04.465Z,59.40
2024-03-21T10:57:29.536Z,59.30
2024-03-21T11:00:56.267Z,54.40
2024-03-21T11:04:21.159Z,52.20
2024-03-21T11:07:46.903Z,54.00
2024-03-21T11:11:12.387Z,50.60
2024-03-21T11:14:37.919Z,51.20
2024-03-21T11:18:03.538Z,51.70
2024-03-21T11:21:28.708Z,48.40
2024-03-21T11:24:53.856Z,47.90
2024-03-21T11:28:19.316Z,45.90
2024-03-21T11:31:45.612Z,45.40
2024-03-21T11:35:12.288Z,45.40
2024-03-21T11:38:37.941Z,43.50
2024-03-21T11:42:04.051Z,42.90
2024-03-21T11:45:29.816Z,41.80
2024-03-21T11:49:05.943Z,43.10
2024-03-21T11:52:31.344Z,45.30
2024-03-21T11:55:56.401Z,44.80
2024-03-21T11:59:23.010Z,45.30
2024-03-21T12:02:49.308Z,43.80
2024-03-21T12:06:14.669Z,42.70
2024-03-21T12:09:40.221Z,44.90
2024-03-21T12:13:05.984Z,47.50
2024-03-21T12:16:31.223Z,44.80
2024-03-21T12:19:56.221Z,42.80
2024-03-21T12:23:21.579Z,42.10
2024-03-21T12:26:47.189Z,40.70
2024-03-21T12:30:14.514Z,41.80
2024-03-21T12:33:39.770Z,38.50
2024-03-21T12:37:05.297Z,41.80
2024-03-21T12:40:30.600Z,39.20
2024-03-21T12:43:57.554Z,40.10
2024-03-21T12:47:23.040Z,40.00
2024-03-21T12:50:48.417Z,39.80
2024-03-21T12:54:14.033Z,37.90
2024-03-21T12:57:39.628Z,38.00
2024-03-21T13:01:05.084Z,36.30
2024-03-21T13:04:32.537Z,36.40
2024-03-21T13:07:57.828Z,35.80
2024-03-21T13:11:22.800Z,38.60
2024-03-21T13:14:48.168Z,36.30
2024-03-21T13:18:13.468Z,35.30
2024-03-21T13:21:38.685Z,38.30
2024-03-21T13:25:04.001Z,37.90
2024-03-21T13:28:29.185Z,38.30
2024-03-21T13:31:54.129Z,38.20
2024-03-21T13:35:20.770Z,38.80
2024-03-21T13:38:54.324Z,37.70
2024-03-21T13:42:19.680Z,39.20
2024-03-21T13:45:55.551Z,39.10
2024-03-21T13:49:20.855Z,37.90
2024-03-21T13:52:45.935Z,39.60
2024-03-21T13:56:11.107Z,39.10
2024-03-21T13:59:36.614Z,35.40
2024-03-21T14:03:02.458Z,35.50
2024-03-21T14:06:27.968Z,39.40
2024-03-21T14:09:53.357Z,36.90
2024-03-21T14:13:20.796Z,36.00
2024-03-21T14:16:45.805Z,34.40
2024-03-21T14:20:12.292Z,35.00
2024-03-21T14:23:37.587Z,34.70
2024-03-21T14:27:04.340Z,34.60
2024-03-21T14:30:29.790Z,34.70
2024-03-21T14:33:54.759Z,33.90
2024-03-21T14:37:19.974Z,32.70
2024-03-21T14:40:45.293Z,32.40
2024-03-21T14:44:11.517Z,31.80
2024-03-21T14:47:36.678Z,29.70
2024-03-21T14:51:01.763Z,26.90
2024-03-21T14:54:27.607Z,23.50
2024-03-21T14:57:53.450Z,23.20
2024-03-21T15:01:18.595Z,22.70
2024-03-21T15:04:43.992Z,24.40
2024-03-21T15:08:09.330Z,21.80
2024-03-21T15:11:34.801Z,22.50
2024-03-21T15:15:00.409Z,23.00
2024-03-21T15:18:25.801Z,23.90
2024-03-21T15:21:50.701Z,24.70
2024-03-21T15:25:16.637Z,23.40
2024-03-21T15:28:43.513Z,24.30
2024-03-21T15:32:09.507Z,25.90
2024-03-21T15:35:34.962Z,25.00
2024-03-21T15:39:00.346Z,25.60
2024-03-21T15:42:25.892Z,26.00
2024-03-21T15:45:51.211Z,26.70
2024-03-21T15:49:16.869Z,26.70
2024-03-21T15:52:41.807Z,28.30
2024-03-21T15:56:08.031Z,27.80
2024-03-21T15:59:33.263Z,28.80
2024-03-21T16:02:58.711Z,30.80
2024-03-21T16:06:26.696Z,31.50
2024-03-21T16:09:53.200Z,32.50
2024-03-21T16:13:21.116Z,32.80
2024-03-21T16:16:46.374Z,33.50
2024-03-21T16:20:13.203Z,32.20
2024-03-21T16:23:38.865Z,33.30
2024-03-21T16:27:04.246Z,31.90
2024-03-21T16:30:30.853Z,33.90
2024-03-21T16:33:56.015Z,31.60
2024-03-21T16:37:21.218Z,32.50
2024-03-21T16:40:48.565Z,32.10
2024-03-21T16:44:13.827Z,30.80
2024-03-21T16:47:39.413Z,32.70
2024-03-21T16:51:04.722Z,32.20
2024-03-21T16:54:30.269Z,34.90
2024-03-21T16:57:55.373Z,34.40
2024-03-21T17:01:20.758Z,33.70
2024-03-21T17:04:45.971Z,37.50
2024-03-21T17:08:11.025Z,36.60
2024-03-21T17:11:36.097Z,33.80
2024-03-21T17:15:01.232Z,34.90
2024-03-21T17:18:26.725Z,35.90
2024-03-21T17:21:51.783Z,36.00
2024-03-21T17:25:17.060Z,36.00
2024-03-21T17:28:42.469Z,37.70
2024-03-21T17:32:08.142Z,38.90
2024-03-21T17:35:33.758Z,38.40
2024-03-21T17:39:00.941Z,38.80
2024-03-21T17:42:26.243Z,38.50
2024-03-21T17:45:51.547Z,36.50
2024-03-21T17:49:19.066Z,35.90
2024-03-21T17:52:44.312Z,36.00
2024-03-21T17:56:09.245Z,35.60
2024-03-21T17:59:34.797Z,33.60
2024-03-21T18:03:00.136Z,33.70
2024-03-21T18:06:25.343Z,32.60
2024-03-21T18:09:50.398Z,32.90
2024-03-21T18:13:15.523Z,33.00
2024-03-21T18:16:40.502Z,31.60
2024-03-21T18:20:05.915Z,33.40
2024-03-21T18:23:31.073Z,32.40
2024-03-21T18:26:56.667Z,33.00
2024-03-21T18:30:21.721Z,34.00
2024-03-21T18:33:46.835Z,34.40
2024-03-21T18:37:11.843Z,33.20
2024-03-21T18:40:36.948Z,34.50
2024-03-21T18:44:02.353Z,36.40
2024-03-21T18:47:27.417Z,34.30
2024-03-21T18:50:55.008Z,35.30
2024-03-21T18:54:20.493Z,33.20
2024-03-21T18:57:45.931Z,33.50
2024-03-21T19:01:11.392Z,32.50
2024-03-21T19:04:36.486Z,31.20
2024-03-21T19:08:01.760Z,32.00
2024-03-21T19:11:27.110Z,32.30
2024-03-21T19:14:52.308Z,32.20
2024-03-21T19:18:17.726Z,31.80
2024-03-21T19:21:43.294Z,33.40
2024-03-21T19:25:09.851Z,32.90
2024-03-21T19:28:35.896Z,32.20
2024-03-21T19:32:02.849Z,31.40
2024-03-21T19:35:28.904Z,32.50
2024-03-21T19:38:55.547Z,32.00
2024-03-21T19:42:21.936Z,30.50
2024-03-21T19:45:47.015Z,28.50
2024-03-21T19:49:12.701Z,28.80
2024-03-21T19:52:38.118Z,30.20
2024-03-21T19:56:04.888Z,29.40
2024-03-21T19:59:29.864Z,30.10
2024-03-21T20:02:55.128Z,30.60
2024-03-21T20:06:20.668Z,31.40
2024-03-21T20:09:45.908Z,27.50
2024-03-21T20:13:11.114Z,28.00
2024-03-21T20:16:36.667Z,29.20
2024-03-21T20:20:01.930Z,29.00
2024-03-21T20:23:27.850Z,27.30
2024-03-21T20:26:53.499Z,26.90
2024-03-21T20:30:18.705Z,25.30
2024-03-21T20:33:45.889Z,25.20
2024-03-21T20:37:11.379Z,25.40
2024-03-21T20:40:37.119Z,24.50
2024-03-21T20:44:02.354Z,25.70
2024-03-21T20:47:29.515Z,24.00
2024-03-21T20:51:10.491Z,25.40
2024-03-21T20:54:35.723Z,25.30
2024-03-21T20:58:00.987Z,25.50
2024-03-21T21:01:26.211Z,24.40
2024-03-21T21:04:52.873Z,23.80
2024-03-21T21:08:18.115Z,22.60
2024-03-21T21:11:44.618Z,22.60
2024-03-21T21:15:11.332Z,22.50
2024-03-21T21:18:36.756Z,21.10
2024-03-21T21:22:01.995Z,20.10
2024-03-21T21:25:26.999Z,21.00
2024-03-21T21:28:52.134Z,20.80
2024-03-21T21:32:17.334Z,20.50
2024-03-21T21:35:42.830Z,20.80
2024-03-21T21:39:08.339Z,21.60
2024-03-21T21:42:33.444Z,23.20
2024-03-21T21:45:58.721Z,22.50
2024-03-21T21:49:23.939Z,23.20
2024-03-21T21:52:50.743Z,23.50
2024-03-21T21:56:17.710Z,22.90
2024-03-21T21:59:45.134Z,24.60
2024-03-21T22:03:09.865Z,23.50
2024-03-21T22:06:35.252Z,23.90
2024-03-21T22:10:00.595Z,26.10
2024-03-21T22:13:26.085Z,26.80
2024-03-21T22:16:51.432Z,26.40
2024-03-21T22:20:17.330Z,25.60
2024-03-21T22:23:45.957Z,25.60
2024-03-21T22:27:10.954Z,24.00
2024-03-21T22:30:36.163Z,23.70
2024-03-21T22:34:01.549Z,25.40
2024-03-21T22:37:27.899Z,23.50
2024-03-21T22:40:53.949Z,24.30
2024-03-21T22:44:18.938Z,24.40
2024-03-21T22:47:44.290Z,27.10
2024-03-21T22:51:12.122Z,25.10
2024-03-21T22:54:37.840Z,26.30
2024-03-21T22:58:02.998Z,26.50
2024-03-21T23:01:28.038Z,26.70
2024-03-21T23:04:53.183Z,26.80
2024-03-21T23:08:18.473Z,26.70
2024-03-21T23:11:43.714Z,25.40
2024-03-21T23:15:11.720Z,26.30
2024-03-21T23:18:36.786Z,24.50
2024-03-21T23:22:01.839Z,24.30
2024-03-21T23:25:27.112Z,22.90
2024-03-21T23:28:51.999Z,21.60
2024-03-21T23:32:16.823Z,19.80
2024-03-21T23:35:42.041Z,20.00
2024-03-21T23:39:07.738Z,18.40
2024-03-21T23:42:33.476Z,19.10
2024-03-21T23:45:58.815Z,17.90
2024-03-21T23:49:23.785Z,18.00
2024-03-21T23:52:48.806Z,18.50
2024-03-21T23:56:13.839Z,17.60
2024-03-21T23:59:42.614Z,18.20
